sensor_id;sensor_type;location;lat;lon;timestamp;P1;durP1;ratioP1;P2;durP2;ratioP2
68947;SDS011;55996;49.546;7.400;2022-12-07T00:03:34;8.13;;;6.07;;
68947;SDS011;55996;49.546;7.400;2022-12-07T00:06:02;7.33;;;6.50;;
68947;SDS011;55996;49.546;7.400;2022-12-07T00:08:28;6.70;;;5.80;;
68947;SDS011;55996;49.546;7.400;2022-12-07T00:10:54;7.27;;;5.77;;
68947;SDS011;55996;49.546;7.400;2022-12-07T00:13:20;8.03;;;6.10;;
68947;SDS011;55996;49.546;7.400;2022-12-07T00:15:45;8.23;;;6.03;;
68947;SDS011;55996;49.546;7.400;2022-12-07T00:18:10;6.80;;;5.67;;
68947;SDS011;55996;49.546;7.400;2022-12-07T00:20:36;8.13;;;5.53;;
68947;SDS011;55996;49.546;7.400;2022-12-07T00:23:01;6.37;;;5.07;;
68947;SDS011;55996;49.546;7.400;2022-12-07T00:25:27;6.20;;;5.07;;
68947;SDS011;55996;49.546;7.400;2022-12-07T00:27:53;7.27;;;5.47;;
68947;SDS011;55996;49.546;7.400;2022-12-07T00:30:21;6.27;;;5.23;;
68947;SDS011;55996;49.546;7.400;2022-12-07T00:32:47;5.60;;;5.00;;
68947;SDS011;55996;49.546;7.400;2022-12-07T00:35:12;6.87;;;5.07;;
68947;SDS011;55996;49.546;7.400;2022-12-07T00:37:38;7.13;;;5.13;;
68947;SDS011;55996;49.546;7.400;2022-12-07T00:40:04;6.73;;;5.27;;
68947;SDS011;55996;49.546;7.400;2022-12-07T00:42:30;7.10;;;5.80;;
68947;SDS011;55996;49.546;7.400;2022-12-07T00:44:55;6.93;;;5.10;;
68947;SDS011;55996;49.546;7.400;2022-12-07T00:47:21;7.60;;;5.67;;
68947;SDS011;55996;49.546;7.400;2022-12-07T00:49:46;8.20;;;5.20;;
68947;SDS011;55996;49.546;7.400;2022-12-07T00:52:11;7.93;;;5.67;;
68947;SDS011;55996;49.546;7.400;2022-12-07T00:54:37;6.60;;;5.07;;
68947;SDS011;55996;49.546;7.400;2022-12-07T00:57:02;6.00;;;4.80;;
68947;SDS011;55996;49.546;7.400;2022-12-07T00:59:29;7.70;;;5.37;;
68947;SDS011;55996;49.546;7.400;2022-12-07T01:01:54;6.40;;;5.03;;
68947;SDS011;55996;49.546;7.400;2022-12-07T01:04:20;8.77;;;5.30;;
68947;SDS011;55996;49.546;7.400;2022-12-07T01:06:45;5.57;;;4.80;;
68947;SDS011;55996;49.546;7.400;2022-12-07T01:09:11;5.63;;;4.97;;
68947;SDS011;55996;49.546;7.400;2022-12-07T01:11:36;6.97;;;5.33;;
68947;SDS011;55996;49.546;7.400;2022-12-07T01:14:01;7.23;;;5.60;;
68947;SDS011;55996;49.546;7.400;2022-12-07T01:16:28;7.27;;;5.30;;
68947;SDS011;55996;49.546;7.400;2022-12-07T01:18:55;7.00;;;5.33;;
68947;SDS011;55996;49.546;7.400;2022-12-07T01:21:23;7.57;;;5.60;;
68947;SDS011;55996;49.546;7.400;2022-12-07T01:23:50;7.77;;;5.17;;
68947;SDS011;55996;49.546;7.400;2022-12-07T01:26:18;7.00;;;5.80;;
68947;SDS011;55996;49.546;7.400;2022-12-07T01:28:45;7.87;;;6.17;;
68947;SDS011;55996;49.546;7.400;2022-12-07T01:31:11;6.30;;;5.07;;
68947;SDS011;55996;49.546;7.400;2022-12-07T01:33:40;8.47;;;5.80;;
68947;SDS011;55996;49.546;7.400;2022-12-07T01:36:07;7.47;;;5.60;;
68947;SDS011;55996;49.546;7.400;2022-12-07T01:38:41;6.63;;;5.13;;
68947;SDS011;55996;49.546;7.400;2022-12-07T01:41:07;8.03;;;5.20;;
68947;SDS011;55996;49.546;7.400;2022-12-07T01:43:33;8.70;;;5.27;;
68947;SDS011;55996;49.546;7.400;2022-12-07T01:45:59;6.30;;;4.90;;
68947;SDS011;55996;49.546;7.400;2022-12-07T01:48:27;6.30;;;5.10;;
68947;SDS011;55996;49.546;7.400;2022-12-07T01:50:57;6.53;;;5.17;;
68947;SDS011;55996;49.546;7.400;2022-12-07T01:53:29;7.20;;;5.40;;
68947;SDS011;55996;49.546;7.400;2022-12-07T01:55:58;6.53;;;5.77;;
68947;SDS011;55996;49.546;7.400;2022-12-07T01:58:24;6.47;;;5.20;;
68947;SDS011;55996;49.546;7.400;2022-12-07T02:00:50;6.57;;;5.40;;
68947;SDS011;55996;49.546;7.400;2022-12-07T02:03:24;7.17;;;6.10;;
68947;SDS011;55996;49.546;7.400;2022-12-07T02:05:54;8.40;;;6.57;;
68947;SDS011;55996;49.546;7.400;2022-12-07T02:08:20;9.30;;;6.33;;
68947;SDS011;55996;49.546;7.400;2022-12-07T02:10:46;9.03;;;6.83;;
68947;SDS011;55996;49.546;7.400;2022-12-07T02:16:05;7.97;;;5.60;;
68947;SDS011;55996;49.546;7.400;2022-12-07T02:21:23;7.30;;;5.90;;
68947;SDS011;55996;49.546;7.400;2022-12-07T02:29:40;9.27;;;5.80;;
68947;SDS011;55996;49.546;7.400;2022-12-07T02:32:23;7.47;;;5.53;;
68947;SDS011;55996;49.546;7.400;2022-12-07T02:34:51;9.63;;;6.23;;
68947;SDS011;55996;49.546;7.400;2022-12-07T02:40:18;7.93;;;6.13;;
68947;SDS011;55996;49.546;7.400;2022-12-07T02:42:50;8.43;;;5.57;;
68947;SDS011;55996;49.546;7.400;2022-12-07T02:45:23;7.40;;;5.93;;
68947;SDS011;55996;49.546;7.400;2022-12-07T02:47:52;9.27;;;6.23;;
68947;SDS011;55996;49.546;7.400;2022-12-07T02:50:21;8.10;;;6.10;;
68947;SDS011;55996;49.546;7.400;2022-12-07T02:52:47;9.20;;;5.73;;
68947;SDS011;55996;49.546;7.400;2022-12-07T02:55:12;9.67;;;6.20;;
68947;SDS011;55996;49.546;7.400;2022-12-07T03:00:25;8.93;;;6.77;;
68947;SDS011;55996;49.546;7.400;2022-12-07T03:13:29;9.27;;;6.53;;
68947;SDS011;55996;49.546;7.400;2022-12-07T03:18:46;9.27;;;6.53;;
68947;SDS011;55996;49.546;7.400;2022-12-07T03:21:17;10.03;;;7.10;;
68947;SDS011;55996;49.546;7.400;2022-12-07T03:23:48;9.30;;;7.27;;
68947;SDS011;55996;49.546;7.400;2022-12-07T03:26:18;9.73;;;7.53;;
68947;SDS011;55996;49.546;7.400;2022-12-07T03:28:52;10.57;;;7.33;;
68947;SDS011;55996;49.546;7.400;2022-12-07T03:31:24;9.20;;;7.70;;
68947;SDS011;55996;49.546;7.400;2022-12-07T03:34:02;8.87;;;6.97;;
68947;SDS011;55996;49.546;7.400;2022-12-07T03:36:37;9.87;;;7.03;;
68947;SDS011;55996;49.546;7.400;2022-12-07T03:42:05;10.83;;;7.93;;
68947;SDS011;55996;49.546;7.400;2022-12-07T03:44:33;8.17;;;7.17;;
68947;SDS011;55996;49.546;7.400;2022-12-07T03:49:37;10.67;;;7.70;;
68947;SDS011;55996;49.546;7.400;2022-12-07T03:57:32;12.53;;;8.10;;
68947;SDS011;55996;49.546;7.400;2022-12-07T03:59:59;10.60;;;7.80;;
68947;SDS011;55996;49.546;7.400;2022-12-07T04:02:26;10.00;;;7.30;;
68947;SDS011;55996;49.546;7.400;2022-12-07T04:04:54;14.57;;;8.67;;
68947;SDS011;55996;49.546;7.400;2022-12-07T04:07:20;11.57;;;8.33;;
68947;SDS011;55996;49.546;7.400;2022-12-07T04:09:46;11.90;;;8.70;;
68947;SDS011;55996;49.546;7.400;2022-12-07T04:12:12;10.03;;;8.13;;
68947;SDS011;55996;49.546;7.400;2022-12-07T04:14:38;12.13;;;8.20;;
68947;SDS011;55996;49.546;7.400;2022-12-07T04:17:03;13.73;;;9.17;;
68947;SDS011;55996;49.546;7.400;2022-12-07T04:19:30;9.47;;;7.67;;
68947;SDS011;55996;49.546;7.400;2022-12-07T04:21:58;11.40;;;8.83;;
68947;SDS011;55996;49.546;7.400;2022-12-07T04:24:25;11.13;;;9.30;;
68947;SDS011;55996;49.546;7.400;2022-12-07T04:26:51;10.50;;;8.97;;
68947;SDS011;55996;49.546;7.400;2022-12-07T04:29:17;11.63;;;9.47;;
68947;SDS011;55996;49.546;7.400;2022-12-07T04:31:43;12.07;;;9.17;;
68947;SDS011;55996;49.546;7.400;2022-12-07T04:34:09;12.23;;;9.93;;
68947;SDS011;55996;49.546;7.400;2022-12-07T04:36:35;13.17;;;10.00;;
68947;SDS011;55996;49.546;7.400;2022-12-07T04:39:01;11.73;;;9.27;;
68947;SDS011;55996;49.546;7.400;2022-12-07T04:41:28;11.70;;;9.60;;
68947;SDS011;55996;49.546;7.400;2022-12-07T04:43:57;12.83;;;9.30;;
68947;SDS011;55996;49.546;7.400;2022-12-07T04:46:26;12.97;;;9.83;;
68947;SDS011;55996;49.546;7.400;2022-12-07T04:48:52;12.93;;;9.70;;
68947;SDS011;55996;49.546;7.400;2022-12-07T04:51:20;12.40;;;9.73;;
68947;SDS011;55996;49.546;7.400;2022-12-07T04:53:47;13.97;;;9.37;;
68947;SDS011;55996;49.546;7.400;2022-12-07T04:56:14;11.90;;;9.43;;
68947;SDS011;55996;49.546;7.400;2022-12-07T04:58:40;13.93;;;9.77;;
68947;SDS011;55996;49.546;7.400;2022-12-07T05:01:07;11.43;;;9.23;;
68947;SDS011;55996;49.546;7.400;2022-12-07T05:03:32;23.87;;;9.80;;
68947;SDS011;55996;49.546;7.400;2022-12-07T05:05:57;11.93;;;9.10;;
68947;SDS011;55996;49.546;7.400;2022-12-07T05:08:23;12.90;;;9.53;;
68947;SDS011;55996;49.546;7.400;2022-12-07T05:10:49;13.17;;;9.90;;
68947;SDS011;55996;49.546;7.400;2022-12-07T05:13:14;13.17;;;9.60;;
68947;SDS011;55996;49.546;7.400;2022-12-07T05:15:40;11.53;;;9.40;;
68947;SDS011;55996;49.546;7.400;2022-12-07T05:18:08;12.50;;;9.30;;
68947;SDS011;55996;49.546;7.400;2022-12-07T05:20:34;13.07;;;9.47;;
68947;SDS011;55996;49.546;7.400;2022-12-07T05:22:59;12.30;;;9.23;;
68947;SDS011;55996;49.546;7.400;2022-12-07T05:25:25;12.33;;;9.53;;
68947;SDS011;55996;49.546;7.400;2022-12-07T05:27:50;13.03;;;9.90;;
68947;SDS011;55996;49.546;7.400;2022-12-07T05:30:16;11.73;;;9.07;;
68947;SDS011;55996;49.546;7.400;2022-12-07T05:32:41;10.90;;;8.83;;
68947;SDS011;55996;49.546;7.400;2022-12-07T05:35:07;14.10;;;9.87;;
68947;SDS011;55996;49.546;7.400;2022-12-07T05:37:32;10.07;;;9.00;;
68947;SDS011;55996;49.546;7.400;2022-12-07T05:39:58;10.80;;;8.60;;
68947;SDS011;55996;49.546;7.400;2022-12-07T05:42:23;11.00;;;8.77;;
68947;SDS011;55996;49.546;7.400;2022-12-07T05:44:49;11.77;;;8.90;;
68947;SDS011;55996;49.546;7.400;2022-12-07T05:47:14;10.87;;;8.30;;
68947;SDS011;55996;49.546;7.400;2022-12-07T05:49:40;10.17;;;8.73;;
68947;SDS011;55996;49.546;7.400;2022-12-07T05:52:06;10.10;;;8.83;;
68947;SDS011;55996;49.546;7.400;2022-12-07T05:54:32;10.53;;;8.30;;
68947;SDS011;55996;49.546;7.400;2022-12-07T05:56:58;10.30;;;8.33;;
68947;SDS011;55996;49.546;7.400;2022-12-07T05:59:23;9.70;;;7.60;;
68947;SDS011;55996;49.546;7.400;2022-12-07T06:01:50;10.10;;;7.70;;
68947;SDS011;55996;49.546;7.400;2022-12-07T06:04:23;11.23;;;8.60;;
68947;SDS011;55996;49.546;7.400;2022-12-07T06:06:50;9.77;;;7.87;;
68947;SDS011;55996;49.546;7.400;2022-12-07T06:09:16;12.20;;;8.43;;
68947;SDS011;55996;49.546;7.400;2022-12-07T06:11:43;11.30;;;7.97;;
68947;SDS011;55996;49.546;7.400;2022-12-07T06:14:27;10.53;;;8.23;;
68947;SDS011;55996;49.546;7.400;2022-12-07T06:16:53;10.20;;;8.30;;
68947;SDS011;55996;49.546;7.400;2022-12-07T06:19:18;10.73;;;7.77;;
68947;SDS011;55996;49.546;7.400;2022-12-07T06:21:44;11.17;;;9.00;;
68947;SDS011;55996;49.546;7.400;2022-12-07T06:24:12;10.90;;;8.70;;
68947;SDS011;55996;49.546;7.400;2022-12-07T06:26:39;12.33;;;9.10;;
68947;SDS011;55996;49.546;7.400;2022-12-07T06:29:04;11.73;;;9.10;;
68947;SDS011;55996;49.546;7.400;2022-12-07T06:31:30;12.23;;;9.27;;
68947;SDS011;55996;49.546;7.400;2022-12-07T06:34:00;11.93;;;9.20;;
68947;SDS011;55996;49.546;7.400;2022-12-07T06:36:26;14.50;;;9.63;;
68947;SDS011;55996;49.546;7.400;2022-12-07T06:38:52;12.30;;;9.43;;
68947;SDS011;55996;49.546;7.400;2022-12-07T06:41:17;13.83;;;10.37;;
68947;SDS011;55996;49.546;7.400;2022-12-07T06:43:43;13.53;;;9.33;;
68947;SDS011;55996;49.546;7.400;2022-12-07T06:46:08;13.10;;;9.57;;
68947;SDS011;55996;49.546;7.400;2022-12-07T06:48:33;13.57;;;10.17;;
68947;SDS011;55996;49.546;7.400;2022-12-07T06:50:59;11.70;;;9.30;;
68947;SDS011;55996;49.546;7.400;2022-12-07T06:53:24;12.67;;;10.77;;
68947;SDS011;55996;49.546;7.400;2022-12-07T06:55:50;13.37;;;10.50;;
68947;SDS011;55996;49.546;7.400;2022-12-07T06:58:16;12.27;;;9.80;;
68947;SDS011;55996;49.546;7.400;2022-12-07T07:00:42;12.80;;;9.97;;
68947;SDS011;55996;49.546;7.400;2022-12-07T07:03:08;12.63;;;9.50;;
68947;SDS011;55996;49.546;7.400;2022-12-07T07:05:33;14.47;;;10.73;;
68947;SDS011;55996;49.546;7.400;2022-12-07T07:07:59;13.17;;;9.80;;
68947;SDS011;55996;49.546;7.400;2022-12-07T07:10:25;12.50;;;10.53;;
68947;SDS011;55996;49.546;7.400;2022-12-07T07:12:50;12.50;;;10.10;;
68947;SDS011;55996;49.546;7.400;2022-12-07T07:15:16;13.10;;;10.43;;
68947;SDS011;55996;49.546;7.400;2022-12-07T07:17:42;12.03;;;10.00;;
68947;SDS011;55996;49.546;7.400;2022-12-07T07:20:08;13.30;;;10.40;;
68947;SDS011;55996;49.546;7.400;2022-12-07T07:22:34;14.10;;;10.93;;
68947;SDS011;55996;49.546;7.400;2022-12-07T07:24:59;14.20;;;10.77;;
68947;SDS011;55996;49.546;7.400;2022-12-07T07:27:24;14.87;;;11.43;;
68947;SDS011;55996;49.546;7.400;2022-12-07T07:29:50;12.97;;;10.33;;
68947;SDS011;55996;49.546;7.400;2022-12-07T07:32:15;14.07;;;11.27;;
68947;SDS011;55996;49.546;7.400;2022-12-07T07:34:41;15.77;;;10.43;;
68947;SDS011;55996;49.546;7.400;2022-12-07T07:37:06;14.40;;;11.20;;
68947;SDS011;55996;49.546;7.400;2022-12-07T07:39:31;13.53;;;10.73;;
68947;SDS011;55996;49.546;7.400;2022-12-07T07:41:57;12.87;;;10.00;;
68947;SDS011;55996;49.546;7.400;2022-12-07T07:44:22;12.13;;;10.43;;
68947;SDS011;55996;49.546;7.400;2022-12-07T07:46:48;13.17;;;11.50;;
68947;SDS011;55996;49.546;7.400;2022-12-07T07:49:13;13.93;;;11.03;;
68947;SDS011;55996;49.546;7.400;2022-12-07T07:51:38;12.40;;;10.60;;
68947;SDS011;55996;49.546;7.400;2022-12-07T07:54:04;14.37;;;10.50;;
68947;SDS011;55996;49.546;7.400;2022-12-07T07:56:30;12.10;;;9.83;;
68947;SDS011;55996;49.546;7.400;2022-12-07T07:58:55;14.77;;;10.67;;
68947;SDS011;55996;49.546;7.400;2022-12-07T08:01:21;14.27;;;11.10;;
68947;SDS011;55996;49.546;7.400;2022-12-07T08:03:46;15.23;;;12.20;;
68947;SDS011;55996;49.546;7.400;2022-12-07T08:06:12;15.40;;;11.37;;
68947;SDS011;55996;49.546;7.400;2022-12-07T08:08:38;14.63;;;11.50;;
68947;SDS011;55996;49.546;7.400;2022-12-07T08:11:07;14.77;;;12.13;;
68947;SDS011;55996;49.546;7.400;2022-12-07T08:13:33;14.13;;;11.20;;
68947;SDS011;55996;49.546;7.400;2022-12-07T08:15:59;14.07;;;11.43;;
68947;SDS011;55996;49.546;7.400;2022-12-07T08:18:28;16.27;;;12.03;;
68947;SDS011;55996;49.546;7.400;2022-12-07T08:20:58;15.40;;;11.53;;
68947;SDS011;55996;49.546;7.400;2022-12-07T08:23:25;13.73;;;10.60;;
68947;SDS011;55996;49.546;7.400;2022-12-07T08:25:51;17.87;;;12.67;;
68947;SDS011;55996;49.546;7.400;2022-12-07T08:28:16;16.43;;;11.97;;
68947;SDS011;55996;49.546;7.400;2022-12-07T08:30:42;14.27;;;10.77;;
68947;SDS011;55996;49.546;7.400;2022-12-07T08:33:08;13.77;;;10.60;;
68947;SDS011;55996;49.546;7.400;2022-12-07T08:35:34;16.63;;;11.30;;
68947;SDS011;55996;49.546;7.400;2022-12-07T08:37:59;12.90;;;9.80;;
68947;SDS011;55996;49.546;7.400;2022-12-07T08:40:27;15.40;;;10.60;;
68947;SDS011;55996;49.546;7.400;2022-12-07T08:42:53;12.80;;;9.70;;
68947;SDS011;55996;49.546;7.400;2022-12-07T08:45:19;15.30;;;11.27;;
68947;SDS011;55996;49.546;7.400;2022-12-07T08:47:50;14.13;;;9.10;;
68947;SDS011;55996;49.546;7.400;2022-12-07T08:50:18;12.43;;;8.87;;
68947;SDS011;55996;49.546;7.400;2022-12-07T08:52:47;14.20;;;8.63;;
68947;SDS011;55996;49.546;7.400;2022-12-07T08:55:16;10.40;;;8.10;;
68947;SDS011;55996;49.546;7.400;2022-12-07T08:57:42;10.07;;;7.67;;
68947;SDS011;55996;49.546;7.400;2022-12-07T09:00:07;8.77;;;7.33;;
68947;SDS011;55996;49.546;7.400;2022-12-07T09:02:34;9.43;;;7.33;;
68947;SDS011;55996;49.546;7.400;2022-12-07T09:04:59;9.27;;;7.60;;
68947;SDS011;55996;49.546;7.400;2022-12-07T09:07:25;10.13;;;7.40;;
68947;SDS011;55996;49.546;7.400;2022-12-07T09:09:51;9.63;;;7.37;;
68947;SDS011;55996;49.546;7.400;2022-12-07T09:12:16;8.53;;;6.83;;
68947;SDS011;55996;49.546;7.400;2022-12-07T09:14:42;8.90;;;7.40;;
68947;SDS011;55996;49.546;7.400;2022-12-07T09:17:07;8.07;;;6.53;;
68947;SDS011;55996;49.546;7.400;2022-12-07T09:19:34;7.60;;;6.67;;
68947;SDS011;55996;49.546;7.400;2022-12-07T09:22:00;10.37;;;6.90;;
68947;SDS011;55996;49.546;7.400;2022-12-07T09:24:26;8.37;;;6.60;;
68947;SDS011;55996;49.546;7.400;2022-12-07T09:26:51;9.63;;;6.87;;
68947;SDS011;55996;49.546;7.400;2022-12-07T09:29:16;9.07;;;7.30;;
68947;SDS011;55996;49.546;7.400;2022-12-07T09:31:42;11.10;;;7.30;;
68947;SDS011;55996;49.546;7.400;2022-12-07T09:34:07;7.73;;;6.50;;
68947;SDS011;55996;49.546;7.400;2022-12-07T09:36:33;7.60;;;5.53;;
68947;SDS011;55996;49.546;7.400;2022-12-07T09:38:58;7.00;;;5.27;;
68947;SDS011;55996;49.546;7.400;2022-12-07T09:41:24;6.87;;;5.70;;
68947;SDS011;55996;49.546;7.400;2022-12-07T09:43:52;7.57;;;5.27;;
68947;SDS011;55996;49.546;7.400;2022-12-07T09:46:29;8.13;;;5.20;;
68947;SDS011;55996;49.546;7.400;2022-12-07T09:49:04;8.47;;;5.27;;
68947;SDS011;55996;49.546;7.400;2022-12-07T09:51:30;5.80;;;5.10;;
68947;SDS011;55996;49.546;7.400;2022-12-07T09:53:58;5.60;;;4.27;;
68947;SDS011;55996;49.546;7.400;2022-12-07T09:56:25;4.80;;;4.30;;
68947;SDS011;55996;49.546;7.400;2022-12-07T09:58:55;6.33;;;5.33;;
68947;SDS011;55996;49.546;7.400;2022-12-07T10:01:27;4.87;;;4.27;;
68947;SDS011;55996;49.546;7.400;2022-12-07T10:03:58;6.23;;;4.20;;
68947;SDS011;55996;49.546;7.400;2022-12-07T10:06:35;5.87;;;3.93;;
68947;SDS011;55996;49.546;7.400;2022-12-07T10:09:00;7.37;;;4.50;;
68947;SDS011;55996;49.546;7.400;2022-12-07T10:11:26;5.10;;;4.10;;
68947;SDS011;55996;49.546;7.400;2022-12-07T10:13:52;5.13;;;4.10;;
68947;SDS011;55996;49.546;7.400;2022-12-07T10:18:49;6.83;;;4.77;;
68947;SDS011;55996;49.546;7.400;2022-12-07T10:21:16;4.83;;;4.33;;
68947;SDS011;55996;49.546;7.400;2022-12-07T10:24:02;7.23;;;4.80;;
68947;SDS011;55996;49.546;7.400;2022-12-07T10:29:23;6.13;;;4.30;;
68947;SDS011;55996;49.546;7.400;2022-12-07T10:32:01;5.60;;;3.97;;
68947;SDS011;55996;49.546;7.400;2022-12-07T10:34:29;4.87;;;3.60;;
68947;SDS011;55996;49.546;7.400;2022-12-07T10:37:18;5.43;;;4.07;;
68947;SDS011;55996;49.546;7.400;2022-12-07T10:47:38;4.47;;;3.37;;
68947;SDS011;55996;49.546;7.400;2022-12-07T10:50:39;5.80;;;3.30;;
68947;SDS011;55996;49.546;7.400;2022-12-07T10:53:23;5.27;;;3.70;;
68947;SDS011;55996;49.546;7.400;2022-12-07T11:01:45;4.00;;;2.60;;
68947;SDS011;55996;49.546;7.400;2022-12-07T11:10:01;3.27;;;2.77;;
68947;SDS011;55996;49.546;7.400;2022-12-07T11:12:54;5.47;;;3.00;;
68947;SDS011;55996;49.546;7.400;2022-12-07T11:18:07;4.00;;;2.70;;
68947;SDS011;55996;49.546;7.400;2022-12-07T11:34:42;3.43;;;2.43;;
68947;SDS011;55996;49.546;7.400;2022-12-07T11:37:18;4.30;;;2.43;;
68947;SDS011;55996;49.546;7.400;2022-12-07T11:39:55;3.33;;;2.20;;
68947;SDS011;55996;49.546;7.400;2022-12-07T11:42:30;4.37;;;2.40;;
68947;SDS011;55996;49.546;7.400;2022-12-07T11:45:03;3.67;;;2.53;;
68947;SDS011;55996;49.546;7.400;2022-12-07T11:47:38;3.17;;;2.50;;
68947;SDS011;55996;49.546;7.400;2022-12-07T11:55:21;2.27;;;2.03;;
68947;SDS011;55996;49.546;7.400;2022-12-07T11:57:54;4.00;;;2.03;;
68947;SDS011;55996;49.546;7.400;2022-12-07T12:00:30;4.73;;;2.70;;
68947;SDS011;55996;49.546;7.400;2022-12-07T12:02:58;3.93;;;2.27;;
68947;SDS011;55996;49.546;7.400;2022-12-07T12:05:29;2.67;;;2.27;;
68947;SDS011;55996;49.546;7.400;2022-12-07T12:10:22;4.47;;;2.30;;
68947;SDS011;55996;49.546;7.400;2022-12-07T12:13:14;3.10;;;2.07;;
68947;SDS011;55996;49.546;7.400;2022-12-07T12:21:11;3.33;;;2.67;;
68947;SDS011;55996;49.546;7.400;2022-12-07T12:23:41;3.73;;;2.90;;
68947;SDS011;55996;49.546;7.400;2022-12-07T12:26:18;4.70;;;2.80;;
68947;SDS011;55996;49.546;7.400;2022-12-07T12:28:53;3.70;;;2.50;;
68947;SDS011;55996;49.546;7.400;2022-12-07T12:33:52;2.93;;;2.40;;
68947;SDS011;55996;49.546;7.400;2022-12-07T12:46:56;4.40;;;2.83;;
68947;SDS011;55996;49.546;7.400;2022-12-07T12:59:56;3.97;;;2.77;;
68947;SDS011;55996;49.546;7.400;2022-12-07T13:04:56;4.10;;;2.40;;
68947;SDS011;55996;49.546;7.400;2022-12-07T13:10:54;4.07;;;2.13;;
68947;SDS011;55996;49.546;7.400;2022-12-07T13:23:31;4.90;;;1.97;;
68947;SDS011;55996;49.546;7.400;2022-12-07T13:28:33;2.27;;;1.97;;
68947;SDS011;55996;49.546;7.400;2022-12-07T13:33:30;3.30;;;2.30;;
68947;SDS011;55996;49.546;7.400;2022-12-07T13:35:56;5.40;;;2.50;;
68947;SDS011;55996;49.546;7.400;2022-12-07T13:41:26;3.40;;;2.50;;
68947;SDS011;55996;49.546;7.400;2022-12-07T13:43:50;3.47;;;2.60;;
68947;SDS011;55996;49.546;7.400;2022-12-07T13:46:19;3.63;;;2.57;;
68947;SDS011;55996;49.546;7.400;2022-12-07T13:48:50;3.50;;;2.30;;
68947;SDS011;55996;49.546;7.400;2022-12-07T13:51:18;4.13;;;2.33;;
68947;SDS011;55996;49.546;7.400;2022-12-07T13:53:50;3.40;;;2.50;;
68947;SDS011;55996;49.546;7.400;2022-12-07T13:56:18;7.30;;;2.43;;
68947;SDS011;55996;49.546;7.400;2022-12-07T13:58:45;3.80;;;2.20;;
68947;SDS011;55996;49.546;7.400;2022-12-07T14:01:11;3.20;;;2.60;;
68947;SDS011;55996;49.546;7.400;2022-12-07T14:03:38;4.30;;;2.97;;
68947;SDS011;55996;49.546;7.400;2022-12-07T14:06:06;4.73;;;2.63;;
68947;SDS011;55996;49.546;7.400;2022-12-07T14:08:41;2.90;;;2.50;;
68947;SDS011;55996;49.546;7.400;2022-12-07T14:11:08;3.70;;;3.03;;
68947;SDS011;55996;49.546;7.400;2022-12-07T14:14:00;4.30;;;2.90;;
68947;SDS011;55996;49.546;7.400;2022-12-07T14:16:33;3.20;;;2.90;;
68947;SDS011;55996;49.546;7.400;2022-12-07T14:19:01;5.33;;;2.80;;
68947;SDS011;55996;49.546;7.400;2022-12-07T14:21:30;4.70;;;3.53;;
68947;SDS011;55996;49.546;7.400;2022-12-07T14:24:11;5.23;;;2.83;;
68947;SDS011;55996;49.546;7.400;2022-12-07T14:26:41;4.53;;;2.90;;
68947;SDS011;55996;49.546;7.400;2022-12-07T14:29:29;5.00;;;3.60;;
68947;SDS011;55996;49.546;7.400;2022-12-07T14:31:58;6.17;;;4.40;;
68947;SDS011;55996;49.546;7.400;2022-12-07T14:34:41;9.43;;;6.50;;
68947;SDS011;55996;49.546;7.400;2022-12-07T14:37:08;4.97;;;3.50;;
68947;SDS011;55996;49.546;7.400;2022-12-07T14:39:35;4.47;;;3.70;;
68947;SDS011;55996;49.546;7.400;2022-12-07T14:42:01;4.53;;;3.83;;
68947;SDS011;55996;49.546;7.400;2022-12-07T14:44:26;3.93;;;3.53;;
68947;SDS011;55996;49.546;7.400;2022-12-07T14:46:52;5.77;;;3.50;;
68947;SDS011;55996;49.546;7.400;2022-12-07T14:49:18;4.17;;;3.23;;
68947;SDS011;55996;49.546;7.400;2022-12-07T14:51:44;3.77;;;3.20;;
68947;SDS011;55996;49.546;7.400;2022-12-07T14:54:15;6.70;;;3.40;;
68947;SDS011;55996;49.546;7.400;2022-12-07T14:56:43;4.07;;;3.47;;
68947;SDS011;55996;49.546;7.400;2022-12-07T14:59:10;3.50;;;3.20;;
68947;SDS011;55996;49.546;7.400;2022-12-07T15:01:37;3.20;;;2.90;;
68947;SDS011;55996;49.546;7.400;2022-12-07T15:04:03;5.23;;;3.20;;
68947;SDS011;55996;49.546;7.400;2022-12-07T15:06:29;4.67;;;3.30;;
68947;SDS011;55996;49.546;7.400;2022-12-07T15:08:54;5.10;;;3.40;;
68947;SDS011;55996;49.546;7.400;2022-12-07T15:11:20;3.90;;;3.10;;
68947;SDS011;55996;49.546;7.400;2022-12-07T15:13:45;4.43;;;3.33;;
68947;SDS011;55996;49.546;7.400;2022-12-07T15:16:29;4.87;;;3.27;;
68947;SDS011;55996;49.546;7.400;2022-12-07T15:18:55;6.00;;;3.87;;
68947;SDS011;55996;49.546;7.400;2022-12-07T15:21:20;8.37;;;3.87;;
68947;SDS011;55996;49.546;7.400;2022-12-07T15:23:46;5.63;;;4.17;;
68947;SDS011;55996;49.546;7.400;2022-12-07T15:26:11;5.33;;;3.80;;
68947;SDS011;55996;49.546;7.400;2022-12-07T15:28:37;4.70;;;3.80;;
68947;SDS011;55996;49.546;7.400;2022-12-07T15:31:02;6.43;;;4.00;;
68947;SDS011;55996;49.546;7.400;2022-12-07T15:33:28;6.13;;;4.33;;
68947;SDS011;55996;49.546;7.400;2022-12-07T15:35:53;6.30;;;4.87;;
68947;SDS011;55996;49.546;7.400;2022-12-07T15:38:19;7.83;;;5.13;;
68947;SDS011;55996;49.546;7.400;2022-12-07T15:40:47;7.20;;;4.77;;
68947;SDS011;55996;49.546;7.400;2022-12-07T15:43:13;7.27;;;4.37;;
68947;SDS011;55996;49.546;7.400;2022-12-07T15:45:57;6.03;;;4.80;;
68947;SDS011;55996;49.546;7.400;2022-12-07T15:48:22;6.13;;;4.50;;
68947;SDS011;55996;49.546;7.400;2022-12-07T15:50:48;7.03;;;4.90;;
68947;SDS011;55996;49.546;7.400;2022-12-07T15:53:13;6.77;;;5.20;;
68947;SDS011;55996;49.546;7.400;2022-12-07T15:55:39;6.63;;;4.77;;
68947;SDS011;55996;49.546;7.400;2022-12-07T15:58:05;7.70;;;5.00;;
68947;SDS011;55996;49.546;7.400;2022-12-07T16:00:31;7.10;;;5.60;;
68947;SDS011;55996;49.546;7.400;2022-12-07T16:02:57;7.90;;;5.13;;
68947;SDS011;55996;49.546;7.400;2022-12-07T16:05:23;6.77;;;5.30;;
68947;SDS011;55996;49.546;7.400;2022-12-07T16:07:48;7.53;;;4.87;;
68947;SDS011;55996;49.546;7.400;2022-12-07T16:10:14;5.30;;;4.50;;
68947;SDS011;55996;49.546;7.400;2022-12-07T16:12:39;9.80;;;5.47;;
68947;SDS011;55996;49.546;7.400;2022-12-07T16:15:05;7.80;;;5.20;;
68947;SDS011;55996;49.546;7.400;2022-12-07T16:17:31;7.90;;;5.20;;
68947;SDS011;55996;49.546;7.400;2022-12-07T16:19:56;7.40;;;4.93;;
68947;SDS011;55996;49.546;7.400;2022-12-07T16:22:22;7.60;;;5.17;;
68947;SDS011;55996;49.546;7.400;2022-12-07T16:24:48;7.43;;;5.27;;
68947;SDS011;55996;49.546;7.400;2022-12-07T16:27:13;8.37;;;5.57;;
68947;SDS011;55996;49.546;7.400;2022-12-07T16:29:39;9.03;;;5.33;;
68947;SDS011;55996;49.546;7.400;2022-12-07T16:32:04;8.90;;;5.63;;
68947;SDS011;55996;49.546;7.400;2022-12-07T16:34:30;7.20;;;5.50;;
68947;SDS011;55996;49.546;7.400;2022-12-07T16:36:55;7.83;;;5.77;;
68947;SDS011;55996;49.546;7.400;2022-12-07T16:39:21;7.27;;;4.90;;
68947;SDS011;55996;49.546;7.400;2022-12-07T16:41:46;7.50;;;5.43;;
68947;SDS011;55996;49.546;7.400;2022-12-07T16:44:13;6.87;;;5.43;;
68947;SDS011;55996;49.546;7.400;2022-12-07T16:46:39;7.80;;;5.67;;
68947;SDS011;55996;49.546;7.400;2022-12-07T16:49:05;9.50;;;6.33;;
68947;SDS011;55996;49.546;7.400;2022-12-07T16:51:30;7.93;;;5.27;;
68947;SDS011;55996;49.546;7.400;2022-12-07T16:53:56;7.70;;;5.67;;
68947;SDS011;55996;49.546;7.400;2022-12-07T16:56:22;10.33;;;5.73;;
68947;SDS011;55996;49.546;7.400;2022-12-07T16:58:48;9.00;;;5.57;;
68947;SDS011;55996;49.546;7.400;2022-12-07T17:01:15;11.57;;;6.30;;
68947;SDS011;55996;49.546;7.400;2022-12-07T17:03:42;10.20;;;5.97;;
68947;SDS011;55996;49.546;7.400;2022-12-07T17:06:15;8.47;;;5.70;;
68947;SDS011;55996;49.546;7.400;2022-12-07T17:08:43;9.00;;;5.47;;
68947;SDS011;55996;49.546;7.400;2022-12-07T17:11:22;9.50;;;6.50;;